KPOE/POE METAR and TAF weather

Enter ICAO airport designator
Station Type Date Time Source
KPOE METAR 2020/05/29 19:58 UTC NOAA

KPOE 291958Z AUTO 02006KT 9SM FEW041 SCT065 29/20 A3002 RMK AO2 SLP165 T02850197


Station Type Date Time Source
KPOE Decoded METAR 2020/05/29 19:58 UTC NOAA

Fort Polk, Polk AAF Ft Polk, LA, United States (KPOE) 31-03N 093-11-38W
May 29, 2020 - 03:58 PM EDT / 2020.05.29 1958 UTC
Wind: from the NNE (020 degrees) at 7 MPH (6 KT):0
Visibility: 9 mile(s):0
Sky conditions: partly cloudy
Temperature: 83.3 F (28.5 C)
Dew Point: 67.5 F (19.7 C)
Relative Humidity: 58%
Pressure (altimeter): 30.02 in. Hg (1016 hPa)
ob: KPOE 291958Z AUTO 02006KT 9SM FEW041 SCT065 29/20 A3002 RMK AO2 SLP165 T02850197
cycle: 20

Station Type Date Time Source
KPOE TAF 2020/05/29 16:12 UTC NOAA

TAF KPOE 291600Z 2916/3022 36006KT 9999 BKN020 QNH3001INS
BECMG 2919/2920 VRB06KT 9000 -SHRA BKN025 QNH2998INS
BECMG 2923/2924 VRB06KT 9999 NSW FEW050 QNH3000INS
BECMG 3016/3017 05010G15KT 9999 FEW050 QNH3001INS TX29/2921Z TN19/3011Z

Example: see airport list